Jeppesen Maersk — OWTW2 — position and weather

sailwx.info

Track history (hours):
 
Tides and Currents Weather Stations Pressure Air Temp Water Temp Dewpoint Dewpoint Depression Visibility Wind Speed Wind Dir Waves Ship Positions

Jeppesen Maersk

Last reported at 2014-Aug-30 17:33 UTC. Time now 2014-Aug-30 20:33 UTC.
Position S 33°16' E 152°05'.

Type: Cargo ship. MMSI: 219953000.

Date/timePositionNaut miles runAvg speedWind from/ knotsBaromVisibWave heightAir tempDewpointWater temp
2014-Aug-30 17:33S 33°16' E 152°05'1212.5
2014-Aug-30 16:33S 33°06' E 152°14'1212.4
2014-Aug-30 15:33S 32°56' E 152°23'1312.8
2014-Aug-30 14:33S 32°46' E 152°33'1413.6
2014-Aug-30 13:33S 32°36' E 152°43'1413.2
2014-Aug-30 12:32S 32°23' E 152°50'24413.4
2014-Aug-29 18:22S 28°26' E 153°57'1114.0
2014-Aug-29 17:33S 28°15' E 153°56'1413.9
2014-Aug-29 16:34S 28°01' E 153°54'1413.5
2014-Aug-29 15:33S 27°48' E 153°52'1414.1
2014-Aug-29 14:33S 27°34' E 153°52'1413.9
2014-Aug-29 13:33S 27°20' E 153°50'1413.8
2014-Aug-29 12:33S 27°06' E 153°49'  
Track history (hours):
 
Tides and Currents Weather Stations Pressure Air Temp Water Temp Dewpoint Dewpoint Depression Visibility Wind Speed Wind Dir Waves Ship Positions

Jeppesen Maersk

Last reported at 2014-Aug-30 17:33 UTC. Time now 2014-Aug-30 20:33 UTC.
Position S 33°16' E 152°05'.

Type: Cargo ship. MMSI: 219953000.

Date/timePositionNaut miles runAvg speedWind from/ knotsBaromVisibWave heightAir tempDewpointWater temp
2014-Aug-30 17:33S 33°16' E 152°05'1212.5
2014-Aug-30 16:33S 33°06' E 152°14'1212.4
2014-Aug-30 15:33S 32°56' E 152°23'1312.8
2014-Aug-30 14:33S 32°46' E 152°33'1413.6
2014-Aug-30 13:33S 32°36' E 152°43'1413.2
2014-Aug-30 12:32S 32°23' E 152°50'24413.4
2014-Aug-29 18:22S 28°26' E 153°57'1114.0
2014-Aug-29 17:33S 28°15' E 153°56'1413.9
2014-Aug-29 16:34S 28°01' E 153°54'1413.5
2014-Aug-29 15:33S 27°48' E 153°52'1414.1
2014-Aug-29 14:33S 27°34' E 153°52'1413.9
2014-Aug-29 13:33S 27°20' E 153°50'1413.8
2014-Aug-29 12:33S 27°06' E 153°49'  

Dump ship's entire track history